sensor_id;sensor_type;location;lat;lon;timestamp;temperature;humidity
20380;DHT22;10349;48.666;8.948;2022-11-15T00:02:07;6.10;99.90
20380;DHT22;10349;48.666;8.948;2022-11-15T00:04:51;6.10;99.90
20380;DHT22;10349;48.666;8.948;2022-11-15T00:07:35;6.10;99.90
20380;DHT22;10349;48.666;8.948;2022-11-15T00:10:19;6.00;99.90
20380;DHT22;10349;48.666;8.948;2022-11-15T00:13:08;5.90;99.90
20380;DHT22;10349;48.666;8.948;2022-11-15T00:15:57;5.90;99.90
20380;DHT22;10349;48.666;8.948;2022-11-15T00:18:41;5.90;99.90
20380;DHT22;10349;48.666;8.948;2022-11-15T00:21:25;5.80;99.90
20380;DHT22;10349;48.666;8.948;2022-11-15T00:24:09;5.80;99.90
20380;DHT22;10349;48.666;8.948;2022-11-15T00:26:53;5.70;99.90
20380;DHT22;10349;48.666;8.948;2022-11-15T00:29:37;5.70;99.90
20380;DHT22;10349;48.666;8.948;2022-11-15T00:32:22;5.60;99.90
20380;DHT22;10349;48.666;8.948;2022-11-15T00:35:06;5.60;99.90
20380;DHT22;10349;48.666;8.948;2022-11-15T00:37:52;5.60;99.90
20380;DHT22;10349;48.666;8.948;2022-11-15T00:40:36;5.50;99.90
20380;DHT22;10349;48.666;8.948;2022-11-15T00:43:21;5.40;99.90
20380;DHT22;10349;48.666;8.948;2022-11-15T00:46:05;5.40;99.90
20380;DHT22;10349;48.666;8.948;2022-11-15T00:48:49;5.40;99.90
20380;DHT22;10349;48.666;8.948;2022-11-15T00:51:33;5.40;99.90
20380;DHT22;10349;48.666;8.948;2022-11-15T00:54:17;5.40;99.90
20380;DHT22;10349;48.666;8.948;2022-11-15T00:57:01;5.40;99.90
20380;DHT22;10349;48.666;8.948;2022-11-15T00:59:46;5.30;99.90
20380;DHT22;10349;48.666;8.948;2022-11-15T01:02:30;5.20;99.90
20380;DHT22;10349;48.666;8.948;2022-11-15T01:05:14;5.20;99.90
20380;DHT22;10349;48.666;8.948;2022-11-15T01:07:59;5.20;99.90
20380;DHT22;10349;48.666;8.948;2022-11-15T01:10:43;5.20;99.90
20380;DHT22;10349;48.666;8.948;2022-11-15T01:13:30;5.20;99.90
20380;DHT22;10349;48.666;8.948;2022-11-15T01:16:16;5.20;99.90
20380;DHT22;10349;48.666;8.948;2022-11-15T01:19:03;5.10;99.90
20380;DHT22;10349;48.666;8.948;2022-11-15T01:21:51;5.10;99.90
20380;DHT22;10349;48.666;8.948;2022-11-15T01:24:35;5.00;99.90
20380;DHT22;10349;48.666;8.948;2022-11-15T01:27:19;5.00;99.90
20380;DHT22;10349;48.666;8.948;2022-11-15T01:30:03;5.00;99.90
20380;DHT22;10349;48.666;8.948;2022-11-15T01:32:48;4.90;99.90
20380;DHT22;10349;48.666;8.948;2022-11-15T01:35:32;4.90;99.90
20380;DHT22;10349;48.666;8.948;2022-11-15T01:38:16;4.90;99.90
20380;DHT22;10349;48.666;8.948;2022-11-15T01:41:00;4.90;99.90
20380;DHT22;10349;48.666;8.948;2022-11-15T01:43:47;4.90;99.90
20380;DHT22;10349;48.666;8.948;2022-11-15T01:46:37;4.90;99.90
20380;DHT22;10349;48.666;8.948;2022-11-15T01:49:22;4.90;99.90
20380;DHT22;10349;48.666;8.948;2022-11-15T01:52:13;4.90;99.90
20380;DHT22;10349;48.666;8.948;2022-11-15T01:55:21;4.90;99.90
20380;DHT22;10349;48.666;8.948;2022-11-15T01:58:07;4.90;99.90
20380;DHT22;10349;48.666;8.948;2022-11-15T02:00:51;5.00;99.90
20380;DHT22;10349;48.666;8.948;2022-11-15T02:03:42;4.90;99.90
20380;DHT22;10349;48.666;8.948;2022-11-15T02:06:30;4.90;99.90
20380;DHT22;10349;48.666;8.948;2022-11-15T02:09:15;5.00;99.90
20380;DHT22;10349;48.666;8.948;2022-11-15T02:12:00;5.00;99.90
20380;DHT22;10349;48.666;8.948;2022-11-15T02:14:48;4.90;99.90
20380;DHT22;10349;48.666;8.948;2022-11-15T02:18:03;4.90;99.90
20380;DHT22;10349;48.666;8.948;2022-11-15T02:20:52;4.90;99.90
20380;DHT22;10349;48.666;8.948;2022-11-15T02:27:16;4.90;99.90
20380;DHT22;10349;48.666;8.948;2022-11-15T02:30:25;4.90;99.90
20380;DHT22;10349;48.666;8.948;2022-11-15T02:33:35;4.90;99.90
20380;DHT22;10349;48.666;8.948;2022-11-15T02:39:44;5.00;99.90
20380;DHT22;10349;48.666;8.948;2022-11-15T02:42:35;5.00;99.90
20380;DHT22;10349;48.666;8.948;2022-11-15T02:46:02;5.00;99.90
20380;DHT22;10349;48.666;8.948;2022-11-15T02:48:48;5.00;99.90
20380;DHT22;10349;48.666;8.948;2022-11-15T02:51:33;5.00;99.90
20380;DHT22;10349;48.666;8.948;2022-11-15T02:54:24;5.00;99.90
20380;DHT22;10349;48.666;8.948;2022-11-15T02:57:15;5.00;99.90
20380;DHT22;10349;48.666;8.948;2022-11-15T03:00:09;5.00;99.90
20380;DHT22;10349;48.666;8.948;2022-11-15T03:09:34;5.10;99.90
20380;DHT22;10349;48.666;8.948;2022-11-15T03:12:42;5.10;99.90
20380;DHT22;10349;48.666;8.948;2022-11-15T03:15:36;5.20;99.90
20380;DHT22;10349;48.666;8.948;2022-11-15T03:18:30;5.20;99.90
20380;DHT22;10349;48.666;8.948;2022-11-15T03:21:18;5.10;99.90
20380;DHT22;10349;48.666;8.948;2022-11-15T03:24:06;5.10;99.90
20380;DHT22;10349;48.666;8.948;2022-11-15T03:26:53;5.10;99.90
20380;DHT22;10349;48.666;8.948;2022-11-15T03:29:39;5.10;99.90
20380;DHT22;10349;48.666;8.948;2022-11-15T03:32:30;5.00;99.90
20380;DHT22;10349;48.666;8.948;2022-11-15T03:35:22;5.00;99.90
20380;DHT22;10349;48.666;8.948;2022-11-15T03:38:24;5.00;99.90
20380;DHT22;10349;48.666;8.948;2022-11-15T03:41:17;5.00;99.90
20380;DHT22;10349;48.666;8.948;2022-11-15T03:44:24;5.00;99.90
20380;DHT22;10349;48.666;8.948;2022-11-15T03:47:31;5.00;99.90
20380;DHT22;10349;48.666;8.948;2022-11-15T03:50:19;5.10;99.90
20380;DHT22;10349;48.666;8.948;2022-11-15T03:53:04;5.10;99.90
20380;DHT22;10349;48.666;8.948;2022-11-15T03:55:48;5.00;99.90
20380;DHT22;10349;48.666;8.948;2022-11-15T03:58:32;5.10;99.90
20380;DHT22;10349;48.666;8.948;2022-11-15T04:01:16;5.10;99.90
20380;DHT22;10349;48.666;8.948;2022-11-15T04:04:00;5.10;99.90
20380;DHT22;10349;48.666;8.948;2022-11-15T04:06:45;5.20;99.90
20380;DHT22;10349;48.666;8.948;2022-11-15T04:09:29;5.20;99.90
20380;DHT22;10349;48.666;8.948;2022-11-15T04:12:13;5.10;99.90
20380;DHT22;10349;48.666;8.948;2022-11-15T04:15:19;5.10;99.90
20380;DHT22;10349;48.666;8.948;2022-11-15T04:18:04;5.10;99.90
20380;DHT22;10349;48.666;8.948;2022-11-15T04:20:48;5.00;99.90
20380;DHT22;10349;48.666;8.948;2022-11-15T04:23:51;5.00;99.90
20380;DHT22;10349;48.666;8.948;2022-11-15T04:26:35;5.00;99.90
20380;DHT22;10349;48.666;8.948;2022-11-15T04:29:19;5.20;99.90
20380;DHT22;10349;48.666;8.948;2022-11-15T04:32:19;5.00;99.90
20380;DHT22;10349;48.666;8.948;2022-11-15T04:35:03;5.10;99.90
20380;DHT22;10349;48.666;8.948;2022-11-15T04:37:48;5.10;99.90
20380;DHT22;10349;48.666;8.948;2022-11-15T04:40:32;5.10;99.90
20380;DHT22;10349;48.666;8.948;2022-11-15T04:43:16;5.20;99.90
20380;DHT22;10349;48.666;8.948;2022-11-15T04:46:00;5.20;99.90
20380;DHT22;10349;48.666;8.948;2022-11-15T04:48:44;5.20;99.90
20380;DHT22;10349;48.666;8.948;2022-11-15T04:51:28;5.20;99.90
20380;DHT22;10349;48.666;8.948;2022-11-15T04:54:13;5.30;99.90
20380;DHT22;10349;48.666;8.948;2022-11-15T04:56:57;5.20;99.90
20380;DHT22;10349;48.666;8.948;2022-11-15T04:59:41;5.30;99.90
20380;DHT22;10349;48.666;8.948;2022-11-15T05:02:25;5.30;99.90
20380;DHT22;10349;48.666;8.948;2022-11-15T05:05:29;5.30;99.90
20380;DHT22;10349;48.666;8.948;2022-11-15T05:08:13;5.30;99.90
20380;DHT22;10349;48.666;8.948;2022-11-15T05:10:57;5.30;99.90
20380;DHT22;10349;48.666;8.948;2022-11-15T05:13:41;5.30;99.90
20380;DHT22;10349;48.666;8.948;2022-11-15T05:16:25;5.20;99.90
20380;DHT22;10349;48.666;8.948;2022-11-15T05:19:10;5.20;99.90
20380;DHT22;10349;48.666;8.948;2022-11-15T05:21:54;5.20;99.90
20380;DHT22;10349;48.666;8.948;2022-11-15T05:24:38;5.20;99.90
20380;DHT22;10349;48.666;8.948;2022-11-15T05:27:22;5.20;99.90
20380;DHT22;10349;48.666;8.948;2022-11-15T05:30:07;5.20;99.90
20380;DHT22;10349;48.666;8.948;2022-11-15T05:32:51;5.20;99.90
20380;DHT22;10349;48.666;8.948;2022-11-15T05:35:39;5.20;99.90
20380;DHT22;10349;48.666;8.948;2022-11-15T05:38:25;5.20;99.90
20380;DHT22;10349;48.666;8.948;2022-11-15T05:41:10;5.30;99.90
20380;DHT22;10349;48.666;8.948;2022-11-15T05:43:55;5.30;99.90
20380;DHT22;10349;48.666;8.948;2022-11-15T05:46:40;5.30;99.90
20380;DHT22;10349;48.666;8.948;2022-11-15T05:49:29;5.30;99.90
20380;DHT22;10349;48.666;8.948;2022-11-15T05:52:18;5.30;99.90
20380;DHT22;10349;48.666;8.948;2022-11-15T05:55:05;5.30;99.90
20380;DHT22;10349;48.666;8.948;2022-11-15T05:57:50;5.30;99.90
20380;DHT22;10349;48.666;8.948;2022-11-15T06:00:34;5.20;99.90
20380;DHT22;10349;48.666;8.948;2022-11-15T06:03:18;5.20;99.90
20380;DHT22;10349;48.666;8.948;2022-11-15T06:06:02;5.10;99.90
20380;DHT22;10349;48.666;8.948;2022-11-15T06:08:46;5.10;99.90
20380;DHT22;10349;48.666;8.948;2022-11-15T06:11:32;5.20;99.90
20380;DHT22;10349;48.666;8.948;2022-11-15T06:14:16;5.10;99.90
20380;DHT22;10349;48.666;8.948;2022-11-15T06:17:00;5.10;99.90
20380;DHT22;10349;48.666;8.948;2022-11-15T06:19:44;5.00;99.90
20380;DHT22;10349;48.666;8.948;2022-11-15T06:22:28;5.00;99.90
20380;DHT22;10349;48.666;8.948;2022-11-15T06:25:12;5.00;99.90
20380;DHT22;10349;48.666;8.948;2022-11-15T06:27:58;5.00;99.90
20380;DHT22;10349;48.666;8.948;2022-11-15T06:30:42;5.00;99.90
20380;DHT22;10349;48.666;8.948;2022-11-15T06:33:27;5.00;99.90
20380;DHT22;10349;48.666;8.948;2022-11-15T06:36:12;4.90;99.90
20380;DHT22;10349;48.666;8.948;2022-11-15T06:39:01;4.90;99.90
20380;DHT22;10349;48.666;8.948;2022-11-15T06:41:46;4.90;99.90
20380;DHT22;10349;48.666;8.948;2022-11-15T06:44:30;4.90;99.90
20380;DHT22;10349;48.666;8.948;2022-11-15T06:47:14;4.90;99.90
20380;DHT22;10349;48.666;8.948;2022-11-15T06:49:59;4.80;99.90
20380;DHT22;10349;48.666;8.948;2022-11-15T06:52:43;4.80;99.90
20380;DHT22;10349;48.666;8.948;2022-11-15T06:55:27;4.80;99.90
20380;DHT22;10349;48.666;8.948;2022-11-15T06:58:12;4.80;99.90
20380;DHT22;10349;48.666;8.948;2022-11-15T07:01:15;4.90;99.90
20380;DHT22;10349;48.666;8.948;2022-11-15T07:03:59;4.90;99.90
20380;DHT22;10349;48.666;8.948;2022-11-15T07:06:48;4.90;99.90
20380;DHT22;10349;48.666;8.948;2022-11-15T07:09:33;5.00;99.90
20380;DHT22;10349;48.666;8.948;2022-11-15T07:12:17;5.00;99.90
20380;DHT22;10349;48.666;8.948;2022-11-15T07:15:01;5.10;99.90
20380;DHT22;10349;48.666;8.948;2022-11-15T07:17:45;5.10;99.90
20380;DHT22;10349;48.666;8.948;2022-11-15T07:20:29;5.20;99.90
20380;DHT22;10349;48.666;8.948;2022-11-15T07:23:13;5.20;99.90
20380;DHT22;10349;48.666;8.948;2022-11-15T07:25:58;5.30;99.90
20380;DHT22;10349;48.666;8.948;2022-11-15T07:28:42;5.30;99.90
20380;DHT22;10349;48.666;8.948;2022-11-15T07:31:27;5.30;99.90
20380;DHT22;10349;48.666;8.948;2022-11-15T07:34:11;5.40;99.90
20380;DHT22;10349;48.666;8.948;2022-11-15T07:36:55;5.50;99.90
20380;DHT22;10349;48.666;8.948;2022-11-15T07:39:39;5.60;99.90
20380;DHT22;10349;48.666;8.948;2022-11-15T07:42:23;5.70;99.90
20380;DHT22;10349;48.666;8.948;2022-11-15T07:45:26;5.80;99.90
20380;DHT22;10349;48.666;8.948;2022-11-15T07:48:11;5.90;99.90
20380;DHT22;10349;48.666;8.948;2022-11-15T07:50:55;5.90;99.90
20380;DHT22;10349;48.666;8.948;2022-11-15T07:53:40;6.00;99.90
20380;DHT22;10349;48.666;8.948;2022-11-15T07:56:24;6.10;99.90
20380;DHT22;10349;48.666;8.948;2022-11-15T07:59:08;6.10;99.90
20380;DHT22;10349;48.666;8.948;2022-11-15T08:01:52;6.20;99.90
20380;DHT22;10349;48.666;8.948;2022-11-15T08:04:36;6.30;99.90
20380;DHT22;10349;48.666;8.948;2022-11-15T08:07:21;6.30;99.90
20380;DHT22;10349;48.666;8.948;2022-11-15T08:10:05;6.30;99.90
20380;DHT22;10349;48.666;8.948;2022-11-15T08:13:07;6.40;99.90
20380;DHT22;10349;48.666;8.948;2022-11-15T08:15:51;6.50;99.90
20380;DHT22;10349;48.666;8.948;2022-11-15T08:18:35;6.50;99.90
20380;DHT22;10349;48.666;8.948;2022-11-15T08:21:20;6.60;99.90
20380;DHT22;10349;48.666;8.948;2022-11-15T08:24:05;6.70;99.90
20380;DHT22;10349;48.666;8.948;2022-11-15T08:26:49;6.80;99.90
20380;DHT22;10349;48.666;8.948;2022-11-15T08:29:33;6.90;99.90
20380;DHT22;10349;48.666;8.948;2022-11-15T08:32:17;7.00;99.90
20380;DHT22;10349;48.666;8.948;2022-11-15T08:35:01;7.10;99.90
20380;DHT22;10349;48.666;8.948;2022-11-15T08:37:45;7.30;99.90
20380;DHT22;10349;48.666;8.948;2022-11-15T08:40:30;7.40;99.90
20380;DHT22;10349;48.666;8.948;2022-11-15T08:43:14;7.70;99.90
20380;DHT22;10349;48.666;8.948;2022-11-15T08:45:59;7.70;99.90
20380;DHT22;10349;48.666;8.948;2022-11-15T08:48:43;8.00;99.90
20380;DHT22;10349;48.666;8.948;2022-11-15T08:51:27;8.00;99.90
20380;DHT22;10349;48.666;8.948;2022-11-15T08:54:11;8.10;99.90
20380;DHT22;10349;48.666;8.948;2022-11-15T08:56:55;8.20;99.90
20380;DHT22;10349;48.666;8.948;2022-11-15T08:59:39;8.30;99.90
20380;DHT22;10349;48.666;8.948;2022-11-15T09:02:23;8.40;99.90
20380;DHT22;10349;48.666;8.948;2022-11-15T09:05:08;8.50;99.90
20380;DHT22;10349;48.666;8.948;2022-11-15T09:07:55;8.60;99.90
20380;DHT22;10349;48.666;8.948;2022-11-15T09:10:39;8.70;99.90
20380;DHT22;10349;48.666;8.948;2022-11-15T09:13:23;8.80;99.90
20380;DHT22;10349;48.666;8.948;2022-11-15T09:16:08;8.90;99.90
20380;DHT22;10349;48.666;8.948;2022-11-15T09:18:53;9.00;99.90
20380;DHT22;10349;48.666;8.948;2022-11-15T09:21:37;9.10;99.90
20380;DHT22;10349;48.666;8.948;2022-11-15T09:24:22;9.10;99.90
20380;DHT22;10349;48.666;8.948;2022-11-15T09:27:06;9.30;99.90
20380;DHT22;10349;48.666;8.948;2022-11-15T09:29:50;9.40;99.90
20380;DHT22;10349;48.666;8.948;2022-11-15T09:32:34;9.50;99.90
20380;DHT22;10349;48.666;8.948;2022-11-15T09:35:19;9.70;99.90
20380;DHT22;10349;48.666;8.948;2022-11-15T09:38:04;9.80;99.90
20380;DHT22;10349;48.666;8.948;2022-11-15T09:40:51;10.00;99.90
20380;DHT22;10349;48.666;8.948;2022-11-15T09:47:00;10.20;99.90
20380;DHT22;10349;48.666;8.948;2022-11-15T09:49:53;10.30;99.90
20380;DHT22;10349;48.666;8.948;2022-11-15T09:52:26;10.40;99.90
20380;DHT22;10349;48.666;8.948;2022-11-15T09:54:53;10.50;99.90
20380;DHT22;10349;48.666;8.948;2022-11-15T09:57:32;10.50;99.90
20380;DHT22;10349;48.666;8.948;2022-11-15T10:00:20;10.60;99.90
20380;DHT22;10349;48.666;8.948;2022-11-15T10:03:10;10.70;99.90
20380;DHT22;10349;48.666;8.948;2022-11-15T10:05:57;10.70;99.90
20380;DHT22;10349;48.666;8.948;2022-11-15T10:08:50;10.90;99.90
20380;DHT22;10349;48.666;8.948;2022-11-15T10:11:23;10.90;99.90
20380;DHT22;10349;48.666;8.948;2022-11-15T10:13:51;11.10;99.90
20380;DHT22;10349;48.666;8.948;2022-11-15T10:16:26;11.10;99.90
20380;DHT22;10349;48.666;8.948;2022-11-15T10:19:18;11.20;99.90
20380;DHT22;10349;48.666;8.948;2022-11-15T10:24:44;11.30;99.90
20380;DHT22;10349;48.666;8.948;2022-11-15T10:27:16;11.40;99.90
20380;DHT22;10349;48.666;8.948;2022-11-15T10:29:52;11.40;99.90
20380;DHT22;10349;48.666;8.948;2022-11-15T10:32:20;11.40;99.90
20380;DHT22;10349;48.666;8.948;2022-11-15T10:34:47;11.40;99.90
20380;DHT22;10349;48.666;8.948;2022-11-15T10:37:13;11.60;99.90
20380;DHT22;10349;48.666;8.948;2022-11-15T10:39:39;11.50;99.90
20380;DHT22;10349;48.666;8.948;2022-11-15T10:42:18;11.50;99.90
20380;DHT22;10349;48.666;8.948;2022-11-15T10:44:50;11.60;99.90
20380;DHT22;10349;48.666;8.948;2022-11-15T10:47:25;11.60;99.90
20380;DHT22;10349;48.666;8.948;2022-11-15T10:49:59;11.70;99.90
20380;DHT22;10349;48.666;8.948;2022-11-15T10:52:25;11.60;99.90
20380;DHT22;10349;48.666;8.948;2022-11-15T10:55:05;11.60;99.90
20380;DHT22;10349;48.666;8.948;2022-11-15T10:57:50;11.60;99.90
20380;DHT22;10349;48.666;8.948;2022-11-15T11:03:06;11.70;99.90
20380;DHT22;10349;48.666;8.948;2022-11-15T11:05:47;11.80;99.90
20380;DHT22;10349;48.666;8.948;2022-11-15T11:15:57;11.90;99.90
20380;DHT22;10349;48.666;8.948;2022-11-15T11:18:34;11.90;99.90
20380;DHT22;10349;48.666;8.948;2022-11-15T11:21:09;11.90;99.90
20380;DHT22;10349;48.666;8.948;2022-11-15T11:26:46;12.00;99.90
20380;DHT22;10349;48.666;8.948;2022-11-15T11:32:03;12.00;99.90
20380;DHT22;10349;48.666;8.948;2022-11-15T11:40:07;12.10;99.90
20380;DHT22;10349;48.666;8.948;2022-11-15T11:51:05;12.10;99.90
20380;DHT22;10349;48.666;8.948;2022-11-15T11:53:39;12.20;99.90
20380;DHT22;10349;48.666;8.948;2022-11-15T11:56:23;12.20;99.90
20380;DHT22;10349;48.666;8.948;2022-11-15T11:58:50;12.30;99.90
20380;DHT22;10349;48.666;8.948;2022-11-15T12:01:29;12.30;99.90
20380;DHT22;10349;48.666;8.948;2022-11-15T12:04:03;12.30;99.90
20380;DHT22;10349;48.666;8.948;2022-11-15T12:06:35;12.40;99.90
20380;DHT22;10349;48.666;8.948;2022-11-15T12:12:06;12.40;99.90
20380;DHT22;10349;48.666;8.948;2022-11-15T12:17:13;12.40;99.90
20380;DHT22;10349;48.666;8.948;2022-11-15T12:19:41;12.40;99.90
20380;DHT22;10349;48.666;8.948;2022-11-15T12:22:22;12.40;99.90
20380;DHT22;10349;48.666;8.948;2022-11-15T12:24:57;12.40;99.90
20380;DHT22;10349;48.666;8.948;2022-11-15T12:27:36;12.40;99.90
20380;DHT22;10349;48.666;8.948;2022-11-15T12:30:09;12.40;99.90
20380;DHT22;10349;48.666;8.948;2022-11-15T12:32:38;12.50;99.90
20380;DHT22;10349;48.666;8.948;2022-11-15T12:35:26;12.50;99.90
20380;DHT22;10349;48.666;8.948;2022-11-15T12:37:54;12.50;99.90
20380;DHT22;10349;48.666;8.948;2022-11-15T12:40:28;12.50;99.90
20380;DHT22;10349;48.666;8.948;2022-11-15T12:45:50;12.50;99.90
20380;DHT22;10349;48.666;8.948;2022-11-15T13:14:57;12.80;99.90
20380;DHT22;10349;48.666;8.948;2022-11-15T13:31:05;12.90;99.90
20380;DHT22;10349;48.666;8.948;2022-11-15T13:33:39;12.90;99.90
20380;DHT22;10349;48.666;8.948;2022-11-15T13:36:25;12.90;99.90
20380;DHT22;10349;48.666;8.948;2022-11-15T13:41:31;12.90;99.90
20380;DHT22;10349;48.666;8.948;2022-11-15T13:43:58;12.90;99.90
20380;DHT22;10349;48.666;8.948;2022-11-15T13:46:29;12.80;99.90
20380;DHT22;10349;48.666;8.948;2022-11-15T13:48:57;12.80;99.90
20380;DHT22;10349;48.666;8.948;2022-11-15T13:51:51;12.80;99.90
20380;DHT22;10349;48.666;8.948;2022-11-15T13:54:29;12.70;99.90
20380;DHT22;10349;48.666;8.948;2022-11-15T13:57:18;12.70;99.90
20380;DHT22;10349;48.666;8.948;2022-11-15T14:02:21;12.60;99.90
20380;DHT22;10349;48.666;8.948;2022-11-15T14:04:57;12.60;99.90
20380;DHT22;10349;48.666;8.948;2022-11-15T14:07:26;12.70;99.90
20380;DHT22;10349;48.666;8.948;2022-11-15T14:09:55;12.70;99.90
20380;DHT22;10349;48.666;8.948;2022-11-15T14:12:26;12.70;99.90
20380;DHT22;10349;48.666;8.948;2022-11-15T14:14:52;12.70;99.90
20380;DHT22;10349;48.666;8.948;2022-11-15T14:17:34;12.70;99.90
20380;DHT22;10349;48.666;8.948;2022-11-15T14:20:00;12.90;99.90
20380;DHT22;10349;48.666;8.948;2022-11-15T14:22:28;12.80;99.90
20380;DHT22;10349;48.666;8.948;2022-11-15T14:27:39;12.80;99.90
20380;DHT22;10349;48.666;8.948;2022-11-15T14:30:05;12.80;99.90
20380;DHT22;10349;48.666;8.948;2022-11-15T14:32:57;12.80;99.90
20380;DHT22;10349;48.666;8.948;2022-11-15T14:35:23;12.80;99.90
20380;DHT22;10349;48.666;8.948;2022-11-15T14:37:49;12.90;99.90
20380;DHT22;10349;48.666;8.948;2022-11-15T14:40:18;12.80;99.90
20380;DHT22;10349;48.666;8.948;2022-11-15T14:42:45;12.80;99.90
20380;DHT22;10349;48.666;8.948;2022-11-15T14:45:16;12.70;99.90
20380;DHT22;10349;48.666;8.948;2022-11-15T14:47:43;12.70;99.90
20380;DHT22;10349;48.666;8.948;2022-11-15T14:50:20;12.70;99.90
20380;DHT22;10349;48.666;8.948;2022-11-15T14:52:47;12.70;99.90
20380;DHT22;10349;48.666;8.948;2022-11-15T14:55:20;12.70;99.90
20380;DHT22;10349;48.666;8.948;2022-11-15T14:57:46;12.70;99.90
20380;DHT22;10349;48.666;8.948;2022-11-15T15:00:13;12.60;99.90
20380;DHT22;10349;48.666;8.948;2022-11-15T15:02:40;12.60;99.90
20380;DHT22;10349;48.666;8.948;2022-11-15T15:05:22;12.60;99.90
20380;DHT22;10349;48.666;8.948;2022-11-15T15:07:49;12.50;99.90
20380;DHT22;10349;48.666;8.948;2022-11-15T15:10:16;12.50;99.90
20380;DHT22;10349;48.666;8.948;2022-11-15T15:12:42;12.40;99.90
20380;DHT22;10349;48.666;8.948;2022-11-15T15:15:16;12.40;99.90
20380;DHT22;10349;48.666;8.948;2022-11-15T15:17:42;12.30;99.90
20380;DHT22;10349;48.666;8.948;2022-11-15T15:20:09;12.30;99.90
20380;DHT22;10349;48.666;8.948;2022-11-15T15:22:35;12.30;99.90
20380;DHT22;10349;48.666;8.948;2022-11-15T15:25:01;12.30;99.90
20380;DHT22;10349;48.666;8.948;2022-11-15T15:27:28;12.20;99.90
20380;DHT22;10349;48.666;8.948;2022-11-15T15:29:53;12.20;99.90
20380;DHT22;10349;48.666;8.948;2022-11-15T15:32:19;12.20;99.90
20380;DHT22;10349;48.666;8.948;2022-11-15T15:34:44;12.20;99.90
20380;DHT22;10349;48.666;8.948;2022-11-15T15:37:24;12.20;99.90
20380;DHT22;10349;48.666;8.948;2022-11-15T15:39:55;12.20;99.90
20380;DHT22;10349;48.666;8.948;2022-11-15T15:42:22;12.10;99.90
20380;DHT22;10349;48.666;8.948;2022-11-15T15:44:48;12.10;99.90
20380;DHT22;10349;48.666;8.948;2022-11-15T15:47:20;11.90;99.90
20380;DHT22;10349;48.666;8.948;2022-11-15T15:49:46;11.80;99.90
20380;DHT22;10349;48.666;8.948;2022-11-15T15:52:12;11.80;99.90
20380;DHT22;10349;48.666;8.948;2022-11-15T15:54:38;11.80;99.90
20380;DHT22;10349;48.666;8.948;2022-11-15T15:57:05;11.70;99.90
20380;DHT22;10349;48.666;8.948;2022-11-15T15:59:31;11.70;99.90
20380;DHT22;10349;48.666;8.948;2022-11-15T16:01:57;11.70;99.90
20380;DHT22;10349;48.666;8.948;2022-11-15T16:04:23;11.70;99.90
20380;DHT22;10349;48.666;8.948;2022-11-15T16:06:48;11.70;99.90
20380;DHT22;10349;48.666;8.948;2022-11-15T16:09:17;11.70;99.90
20380;DHT22;10349;48.666;8.948;2022-11-15T16:11:45;11.70;99.90
20380;DHT22;10349;48.666;8.948;2022-11-15T16:14:11;11.60;99.90
20380;DHT22;10349;48.666;8.948;2022-11-15T16:16:37;11.60;99.90
20380;DHT22;10349;48.666;8.948;2022-11-15T16:19:04;11.60;99.90
20380;DHT22;10349;48.666;8.948;2022-11-15T16:21:30;11.60;99.90
20380;DHT22;10349;48.666;8.948;2022-11-15T16:23:55;11.50;99.90
20380;DHT22;10349;48.666;8.948;2022-11-15T16:26:25;11.50;99.90
20380;DHT22;10349;48.666;8.948;2022-11-15T16:28:51;11.40;99.90
20380;DHT22;10349;48.666;8.948;2022-11-15T16:31:17;11.40;99.90
20380;DHT22;10349;48.666;8.948;2022-11-15T16:33:45;11.40;99.90
20380;DHT22;10349;48.666;8.948;2022-11-15T16:36:19;11.30;99.90
20380;DHT22;10349;48.666;8.948;2022-11-15T16:38:46;11.30;99.90
20380;DHT22;10349;48.666;8.948;2022-11-15T16:41:11;11.30;99.90
20380;DHT22;10349;48.666;8.948;2022-11-15T16:43:37;11.30;99.90
20380;DHT22;10349;48.666;8.948;2022-11-15T16:46:14;11.20;99.90
20380;DHT22;10349;48.666;8.948;2022-11-15T16:48:41;11.40;99.90
20380;DHT22;10349;48.666;8.948;2022-11-15T16:51:07;11.10;99.90
20380;DHT22;10349;48.666;8.948;2022-11-15T16:53:33;11.00;99.90
20380;DHT22;10349;48.666;8.948;2022-11-15T16:55:58;11.00;99.90
20380;DHT22;10349;48.666;8.948;2022-11-15T16:58:24;11.00;99.90
20380;DHT22;10349;48.666;8.948;2022-11-15T17:00:51;11.00;99.90
20380;DHT22;10349;48.666;8.948;2022-11-15T17:03:17;11.00;99.90
20380;DHT22;10349;48.666;8.948;2022-11-15T17:05:43;10.90;99.90
20380;DHT22;10349;48.666;8.948;2022-11-15T17:08:09;10.90;99.90
20380;DHT22;10349;48.666;8.948;2022-11-15T17:10:38;10.80;99.90
20380;DHT22;10349;48.666;8.948;2022-11-15T17:13:05;10.80;99.90
20380;DHT22;10349;48.666;8.948;2022-11-15T17:15:32;10.90;99.90
20380;DHT22;10349;48.666;8.948;2022-11-15T17:17:58;10.70;99.90
20380;DHT22;10349;48.666;8.948;2022-11-15T17:20:24;10.70;99.90
20380;DHT22;10349;48.666;8.948;2022-11-15T17:22:50;10.60;99.90
20380;DHT22;10349;48.666;8.948;2022-11-15T17:25:17;10.60;99.90
20380;DHT22;10349;48.666;8.948;2022-11-15T17:27:43;10.60;99.90
20380;DHT22;10349;48.666;8.948;2022-11-15T17:30:11;10.50;99.90
20380;DHT22;10349;48.666;8.948;2022-11-15T17:32:38;10.60;99.90
20380;DHT22;10349;48.666;8.948;2022-11-15T17:35:04;10.60;99.90
20380;DHT22;10349;48.666;8.948;2022-11-15T17:37:33;10.60;99.90
20380;DHT22;10349;48.666;8.948;2022-11-15T17:39:59;10.60;99.90
20380;DHT22;10349;48.666;8.948;2022-11-15T17:42:25;10.60;99.90
20380;DHT22;10349;48.666;8.948;2022-11-15T17:44:50;10.60;99.90
20380;DHT22;10349;48.666;8.948;2022-11-15T17:47:16;10.50;99.90
20380;DHT22;10349;48.666;8.948;2022-11-15T17:49:42;10.50;99.90
20380;DHT22;10349;48.666;8.948;2022-11-15T17:52:07;10.60;99.90
20380;DHT22;10349;48.666;8.948;2022-11-15T17:54:33;10.60;99.90
20380;DHT22;10349;48.666;8.948;2022-11-15T17:56:59;10.60;99.90
20380;DHT22;10349;48.666;8.948;2022-11-15T17:59:24;10.60;99.90
20380;DHT22;10349;48.666;8.948;2022-11-15T18:01:50;10.60;99.90
20380;DHT22;10349;48.666;8.948;2022-11-15T18:04:18;10.60;99.90
20380;DHT22;10349;48.666;8.948;2022-11-15T18:06:44;10.60;99.90
20380;DHT22;10349;48.666;8.948;2022-11-15T18:09:09;10.50;99.90
20380;DHT22;10349;48.666;8.948;2022-11-15T18:11:37;10.60;99.90
20380;DHT22;10349;48.666;8.948;2022-11-15T18:14:06;10.60;99.90
20380;DHT22;10349;48.666;8.948;2022-11-15T18:16:35;10.60;99.90
20380;DHT22;10349;48.666;8.948;2022-11-15T18:19:01;10.50;99.90
20380;DHT22;10349;48.666;8.948;2022-11-15T18:21:33;10.50;99.90
20380;DHT22;10349;48.666;8.948;2022-11-15T18:24:00;10.40;99.90
20380;DHT22;10349;48.666;8.948;2022-11-15T18:26:27;10.40;99.90
20380;DHT22;10349;48.666;8.948;2022-11-15T18:28:57;10.30;99.90
20380;DHT22;10349;48.666;8.948;2022-11-15T18:31:28;10.20;99.90
20380;DHT22;10349;48.666;8.948;2022-11-15T18:33:55;10.30;99.90
20380;DHT22;10349;48.666;8.948;2022-11-15T18:36:27;10.10;99.90
20380;DHT22;10349;48.666;8.948;2022-11-15T18:38:57;10.20;99.90
20380;DHT22;10349;48.666;8.948;2022-11-15T18:41:24;10.20;99.90
20380;DHT22;10349;48.666;8.948;2022-11-15T18:43:53;10.20;99.90